Fresno, CA

5:27 AM PDT on September 21, 2014 (GMT -0700)
NW Clovis, CA 93619 | Change Station
CLOSE
Current Station
Personal Weather Station
Location: Clovis, CA
Elevation: 374 ft
Nearby Weather Stations

Elev 374 ft 36.86 °N, 119.71 °W | Updated 1 minute ago

Partly Cloudy
Partly Cloudy
65.9 °F
Feels Like 65.9 °F
N
0.0
Wind Variable Wind from WSW
Gusts 0.0 mph

Today
High -- | Low -- °F
--% Chance of Precip.
Yesterday
High -- | Low -- °F
Precip. -- in
6:46 AM 6:57 PM
Waning Crescent, 7% visible
Pressure 29.86 in
Visibility 10.0 miles
Clouds Mostly Cloudy 15000 ft
Dew Point 58 °F
Humidity 76%
Rainfall 0.00 in
Snow Depth 0 in , 1 in , 0 in
UV 0 out of 12
Pollen 5.80 out of 12
Ozone Good
Flu Activity Not available.
METAR KFAT 211153Z 29004KT 10SM BKN150 21/13 A2987 RMK AO2 SLP112 T02060128 10267 20206 53006

More Conditions Fewer Conditions

Pressure 29.86 in
Visibility 10.0 miles
Clouds Mostly Cloudy 15000 ft
Dew Point 58 °F
Humidity 76%
Rainfall 0.00 in
Snow Depth 0 in , 1 in , 0 in
UV 0 out of 12
Pollen 5.80 out of 12
Ozone Good
Flu Activity Not available.
METAR KFAT 211153Z 29004KT 10SM BKN150 21/13 A2987 RMK AO2 SLP112 T02060128 10267 20206 53006

More Conditions Fewer Conditions

10-Day Weather Forecast

Almanac

Astronomy

Sep. 21, 2014 Rise Set
Actual Time 6:46 AM PDT 6:57 PM PDT
Civil Twilight 6:20 AM PDT 7:23 PM PDT
Nautical Twilight 5:50 AM PDT 7:53 PM PDT
Astronomical Twilight 5:19 AM PDT 8:24 PM PDT
Moon 4:27 AM PDT 5:34 PM PDT
Length of Visible Light 13h 02m
Length of Day
12h 11m
Tomorrow will be 2m 20s shorter.
Waning Crescent, 7% of the Moon is Illuminated
Today
Waning Crescent
Sep 24
New
Oct 1
First Quarter
Oct 8
Full
Oct 15
Last Quarter

Today's Extremes

State Highs State Lows

Community

WunderPhotos

Upload Photos

1,755,126 photos uploaded!

Nearby

Air Quality

  Air Quality AQ Index Pollutant
Yesterday Moderate
OZONE
Current Good
OZONE
Sunday Moderate
OZONE
Monday Moderate
OZONE
Tuesday Moderate
OZONE
Wednesday Moderate
OZONE
Thursday Moderate
OZONE

Snow Depth

Station Depth Elevation
Heavenly Valley 0 in 8850 ft
Leavitt Lake 1 in 9400 ft
Ebbetts Pass 0 in 8700 ft
Burnside Lake 1 in 8139 ft
Echo Peak 1 in 7800 ft

Earthquake Activity

City Distance Mag. Time & Date
Inyokern, California 120 miles 3.1 5:33 PM PDT
2014-09-19
Livermore, California 120 miles 2.6 3:37 AM PDT
2014-09-19
Corcoran, California 54 miles 2.9 3:59 PM PDT
2014-09-18
Minimum magnitude displayed is 2.5.

Coastal Water Temperatures

Place Temperature
No Stations Reporting

Nearby Weather Stations